Terminal Aerodrome Forecast
Issued by NWS Sterling, VA

Current Version | Previous Version | Graphics & Text | Print | Product List | Glossary On
Versions: 1 2 3 4 5 6 7 8 9 10 11 12 13 14 15 16 17 18 19 20 21 22 23 24 25 26 27 28
000
FTUS41 KLWX 251535 AAA
TAFIAD
TAF AMD
KIAD 251535Z 2516/2618 16006KT P6SM OVC040
     FM251800 18010KT P6SM BKN025 OVC050
     FM260900 18005KT P6SM OVC010 WS020/21040KT
     FM261500 19010KT P6SM BKN025=

USA.gov is the U.S. government's official web portal to all federal, state and local government web resources and services.